createdAt,value
2022-12-28T00:01:42.997Z,5.70
2022-12-28T00:04:15.004Z,5.88
2022-12-28T00:06:46.446Z,5.88
2022-12-28T00:09:17.858Z,6.35
2022-12-28T00:11:49.442Z,5.72
2022-12-28T00:14:20.869Z,5.70
2022-12-28T00:16:52.324Z,6.00
2022-12-28T00:19:23.772Z,5.90
2022-12-28T00:21:55.182Z,5.55
2022-12-28T00:24:26.583Z,5.35
2022-12-28T00:26:58.055Z,5.85
2022-12-28T00:29:29.509Z,5.27
2022-12-28T00:32:01.017Z,5.57
2022-12-28T00:34:32.482Z,6.30
2022-12-28T00:37:11.615Z,5.88
2022-12-28T00:39:44.057Z,6.15
2022-12-28T00:42:15.566Z,5.77
2022-12-28T00:44:46.979Z,6.35
2022-12-28T00:47:18.396Z,6.00
2022-12-28T00:49:49.835Z,6.63
2022-12-28T00:52:21.294Z,6.30
2022-12-28T00:54:52.695Z,6.30
2022-12-28T00:57:24.115Z,6.45
2022-12-28T00:59:55.545Z,6.80
2022-12-28T01:02:26.955Z,6.38
2022-12-28T01:04:58.391Z,7.07
2022-12-28T01:07:29.878Z,6.63
2022-12-28T01:10:01.347Z,5.90
2022-12-28T01:12:37.951Z,6.53
2022-12-28T01:15:12.388Z,6.57
2022-12-28T01:17:43.827Z,6.10
2022-12-28T01:20:15.294Z,6.30
2022-12-28T01:22:46.762Z,6.60
2022-12-28T01:25:18.222Z,6.03
2022-12-28T01:27:49.698Z,6.45
2022-12-28T01:30:21.157Z,6.50
2022-12-28T01:32:52.553Z,6.55
2022-12-28T01:35:24.002Z,6.38
2022-12-28T01:37:57.081Z,6.38
2022-12-28T01:40:28.513Z,6.30
2022-12-28T01:42:59.939Z,6.25
2022-12-28T01:45:31.440Z,6.70
2022-12-28T01:48:02.972Z,6.68
2022-12-28T01:50:34.446Z,6.60
2022-12-28T01:53:05.913Z,7.10
2022-12-28T01:55:41.380Z,6.13
2022-12-28T01:58:23.055Z,6.93
2022-12-28T02:00:54.738Z,6.50
2022-12-28T02:03:29.542Z,6.20
2022-12-28T02:06:05.511Z,6.45
2022-12-28T02:08:50.446Z,6.53
2022-12-28T02:11:21.930Z,6.28
2022-12-28T02:13:54.263Z,5.90
2022-12-28T02:16:25.783Z,6.10
2022-12-28T02:18:57.465Z,5.78
2022-12-28T02:21:42.730Z,5.70
2022-12-28T02:24:38.409Z,5.68
2022-12-28T02:27:19.073Z,5.97
2022-12-28T02:30:06.084Z,5.72
2022-12-28T02:32:40.217Z,5.38
2022-12-28T02:35:20.644Z,5.40
2022-12-28T02:37:59.951Z,5.80
2022-12-28T02:41:12.553Z,5.00
2022-12-28T02:43:44.867Z,5.43
2022-12-28T02:46:21.528Z,5.38
2022-12-28T02:48:53.016Z,5.30
2022-12-28T02:51:54.858Z,5.10
2022-12-28T02:54:35.383Z,5.50
2022-12-28T02:57:16.031Z,5.53
2022-12-28T02:59:59.512Z,4.93
2022-12-28T03:03:09.488Z,5.15
2022-12-28T03:05:50.173Z,5.28
2022-12-28T03:08:37.001Z,4.93
2022-12-28T03:11:11.771Z,5.28
2022-12-28T03:14:02.854Z,4.25
2022-12-28T03:16:38.349Z,4.45
2022-12-28T03:19:11.051Z,4.55
2022-12-28T03:21:42.807Z,4.70
2022-12-28T03:24:18.310Z,4.75
2022-12-28T03:26:51.710Z,4.70
2022-12-28T03:29:26.097Z,4.93
2022-12-28T03:31:57.579Z,4.45
2022-12-28T03:34:29.132Z,4.57
2022-12-28T03:37:24.919Z,4.40
2022-12-28T03:40:02.607Z,4.88
2022-12-28T03:42:43.878Z,4.35
2022-12-28T03:45:46.546Z,4.72
2022-12-28T03:48:19.321Z,3.95
2022-12-28T03:50:53.230Z,3.90
2022-12-28T03:53:30.368Z,4.22
2022-12-28T03:56:06.765Z,3.83
2022-12-28T03:58:38.220Z,4.18
2022-12-28T04:01:10.532Z,3.83
2022-12-28T04:03:42.383Z,3.53
2022-12-28T04:06:15.560Z,3.50
2022-12-28T04:08:47.602Z,3.47
2022-12-28T04:11:19.072Z,3.73
2022-12-28T04:13:50.496Z,4.28
2022-12-28T04:16:22.132Z,3.50
2022-12-28T04:18:53.571Z,3.00
2022-12-28T04:21:25.083Z,3.35
2022-12-28T04:23:56.543Z,3.33
2022-12-28T04:26:28.003Z,3.35
2022-12-28T04:28:59.457Z,2.80
2022-12-28T04:31:31.354Z,3.40
2022-12-28T04:34:02.843Z,3.53
2022-12-28T04:36:34.302Z,3.30
2022-12-28T04:39:05.850Z,2.78
2022-12-28T04:41:37.293Z,3.45
2022-12-28T04:44:08.981Z,2.90
2022-12-28T04:46:40.469Z,3.10
2022-12-28T04:49:11.916Z,3.20
2022-12-28T04:51:43.300Z,2.90
2022-12-28T04:54:14.850Z,2.40
2022-12-28T04:56:46.306Z,2.65
2022-12-28T04:59:17.728Z,2.58
2022-12-28T05:01:49.240Z,2.65
2022-12-28T05:04:20.695Z,2.60
2022-12-28T05:06:52.154Z,2.65
2022-12-28T05:09:23.957Z,2.47
2022-12-28T05:11:55.431Z,2.58
2022-12-28T05:14:27.703Z,2.17
2022-12-28T05:17:01.315Z,2.08
2022-12-28T05:19:32.729Z,2.50
2022-12-28T05:22:04.239Z,2.30
2022-12-28T05:24:35.671Z,2.38
2022-12-28T05:27:07.104Z,2.65
2022-12-28T05:29:38.527Z,2.45
2022-12-28T05:32:09.950Z,2.17
2022-12-28T05:34:41.428Z,2.55
2022-12-28T05:37:17.011Z,2.40
2022-12-28T05:39:53.152Z,2.78
2022-12-28T05:42:24.560Z,2.58
2022-12-28T05:44:56.009Z,2.37
2022-12-28T05:47:27.668Z,2.70
2022-12-28T05:49:59.080Z,2.23
2022-12-28T05:52:30.515Z,2.50
2022-12-28T05:55:02.486Z,3.05
2022-12-28T05:57:33.996Z,2.47
2022-12-28T06:00:06.315Z,2.30
2022-12-28T06:02:37.859Z,2.53
2022-12-28T06:05:09.579Z,2.30
2022-12-28T06:07:41.040Z,2.70
2022-12-28T06:10:12.497Z,2.47
2022-12-28T06:12:45.018Z,2.55
2022-12-28T06:15:16.533Z,2.80
2022-12-28T06:17:48.011Z,2.25
2022-12-28T06:20:19.484Z,2.38
2022-12-28T06:22:50.949Z,2.22
2022-12-28T06:25:22.400Z,2.33
2022-12-28T06:27:53.862Z,2.40
2022-12-28T06:30:25.266Z,2.20
2022-12-28T06:32:57.395Z,2.47
2022-12-28T06:35:28.845Z,2.37
2022-12-28T06:38:00.427Z,2.08
2022-12-28T06:41:02.478Z,2.50
2022-12-28T06:43:23.262Z,2.88
2022-12-28T06:45:56.249Z,2.65
2022-12-28T06:48:29.047Z,2.55
2022-12-28T06:51:01.722Z,2.30
2022-12-28T06:53:35.999Z,2.95
2022-12-28T06:56:11.484Z,2.35
2022-12-28T06:58:44.297Z,2.63
2022-12-28T07:01:19.049Z,2.75
2022-12-28T07:03:54.411Z,2.67
2022-12-28T07:06:28.128Z,2.83
2022-12-28T07:09:01.689Z,2.58
2022-12-28T07:11:33.411Z,2.72
2022-12-28T07:14:04.914Z,3.00
2022-12-28T07:19:06.578Z,2.73
2022-12-28T07:21:39.521Z,3.30
2022-12-28T07:24:11.023Z,3.25
2022-12-28T07:26:42.508Z,3.40
2022-12-28T07:29:14.265Z,2.85
2022-12-28T07:31:46.086Z,2.70
2022-12-28T07:34:17.532Z,3.20
2022-12-28T07:36:49.010Z,2.70
2022-12-28T07:39:20.414Z,2.90
2022-12-28T07:41:51.871Z,2.90
2022-12-28T07:44:27.922Z,2.70
2022-12-28T07:47:00.933Z,3.05
2022-12-28T07:49:32.323Z,3.05
2022-12-28T07:52:03.933Z,3.23
2022-12-28T07:54:35.391Z,3.03
2022-12-28T07:57:06.874Z,2.90
2022-12-28T07:59:38.337Z,2.83
2022-12-28T08:02:09.893Z,2.67
2022-12-28T08:04:41.405Z,2.40
2022-12-28T08:07:12.825Z,2.97
2022-12-28T08:09:44.246Z,3.10
2022-12-28T08:12:15.750Z,2.80
2022-12-28T08:14:47.235Z,2.50
2022-12-28T08:17:21.160Z,2.45
2022-12-28T08:19:52.903Z,2.55
2022-12-28T08:22:24.351Z,2.80
2022-12-28T08:24:55.776Z,2.70
2022-12-28T08:27:27.236Z,2.40
2022-12-28T08:29:58.664Z,2.20
2022-12-28T08:32:30.078Z,2.35
2022-12-28T08:35:01.489Z,2.50
2022-12-28T08:37:32.939Z,2.20
2022-12-28T08:40:04.940Z,1.98
2022-12-28T08:42:36.362Z,1.90
2022-12-28T08:45:08.298Z,1.97
2022-12-28T08:47:39.749Z,2.10
2022-12-28T08:50:12.295Z,2.05
2022-12-28T08:52:44.191Z,1.80
2022-12-28T08:55:15.755Z,2.22
2022-12-28T08:57:47.138Z,1.92
2022-12-28T09:00:18.794Z,2.17
2022-12-28T09:02:50.242Z,2.00
2022-12-28T09:05:21.738Z,1.90
2022-12-28T09:07:57.817Z,1.87
2022-12-28T09:10:31.339Z,1.92
2022-12-28T09:13:02.765Z,1.80
2022-12-28T09:15:34.207Z,1.43
2022-12-28T09:18:05.679Z,2.08
2022-12-28T09:20:37.106Z,1.80
2022-12-28T09:23:08.546Z,1.70
2022-12-28T09:25:40.718Z,1.75
2022-12-28T09:28:12.136Z,1.55
2022-12-28T09:30:43.580Z,1.63
2022-12-28T09:33:15.086Z,1.48
2022-12-28T09:35:46.582Z,1.67
2022-12-28T09:38:18.045Z,1.85
2022-12-28T09:40:49.510Z,2.03
2022-12-28T09:43:21.287Z,2.13
2022-12-28T09:45:54.744Z,2.00
2022-12-28T09:48:26.146Z,2.10
2022-12-28T09:50:57.626Z,2.10
2022-12-28T09:53:35.499Z,2.28
2022-12-28T09:56:23.974Z,2.33
2022-12-28T09:58:56.358Z,1.77
2022-12-28T10:01:27.960Z,1.80
2022-12-28T10:04:01.534Z,2.60
2022-12-28T10:06:34.083Z,2.07
2022-12-28T10:09:16.210Z,2.00
2022-12-28T10:11:47.647Z,2.10
2022-12-28T10:14:20.611Z,2.23
2022-12-28T10:16:52.125Z,1.88
2022-12-28T10:19:26.485Z,1.95
2022-12-28T10:22:18.468Z,2.17
2022-12-28T10:24:50.286Z,1.90
2022-12-28T10:27:31.179Z,1.90
2022-12-28T10:30:02.693Z,2.42
2022-12-28T10:32:50.725Z,2.28
2022-12-28T10:35:23.454Z,2.15
2022-12-28T10:38:02.935Z,2.10
2022-12-28T10:40:38.233Z,1.70
2022-12-28T10:43:19.039Z,1.95
2022-12-28T10:45:51.599Z,2.03
2022-12-28T10:48:30.048Z,2.40
2022-12-28T10:51:12.482Z,1.95
2022-12-28T10:53:43.918Z,2.40
2022-12-28T10:56:20.924Z,2.65
2022-12-28T10:58:55.128Z,2.50
2022-12-28T11:01:29.283Z,2.65
2022-12-28T11:04:22.338Z,2.60
2022-12-28T11:06:55.201Z,2.53
2022-12-28T11:09:31.759Z,2.70
2022-12-28T11:12:18.273Z,2.78
2022-12-28T11:14:50.422Z,2.63
2022-12-28T11:17:24.134Z,2.58
2022-12-28T11:20:01.906Z,2.85
2022-12-28T11:22:33.940Z,2.85
2022-12-28T11:25:06.246Z,2.75
2022-12-28T11:27:37.727Z,3.00
2022-12-28T11:30:19.846Z,2.60
2022-12-28T11:33:00.513Z,2.88
2022-12-28T11:35:36.422Z,2.58
2022-12-28T11:38:31.591Z,2.60
2022-12-28T11:41:03.052Z,2.63
2022-12-28T11:43:39.542Z,2.50
2022-12-28T11:46:22.970Z,2.65
2022-12-28T11:48:54.370Z,2.23
2022-12-28T11:51:33.804Z,2.50
2022-12-28T11:54:51.171Z,2.45
2022-12-28T11:57:43.408Z,2.80
2022-12-28T12:00:22.171Z,2.53
2022-12-28T12:02:58.140Z,2.67
2022-12-28T12:05:35.419Z,2.80
2022-12-28T12:08:12.943Z,2.30
2022-12-28T12:11:08.239Z,2.35
2022-12-28T12:13:43.563Z,2.73
2022-12-28T12:16:22.903Z,2.80
2022-12-28T12:18:57.554Z,3.10
2022-12-28T12:21:32.819Z,3.10
2022-12-28T12:24:17.512Z,2.75
2022-12-28T12:26:53.433Z,2.53
2022-12-28T12:29:37.060Z,3.13
2022-12-28T12:32:52.859Z,2.70
2022-12-28T12:35:29.110Z,3.38
2022-12-28T12:38:34.797Z,3.45
2022-12-28T12:41:31.075Z,2.85
2022-12-28T12:44:44.240Z,2.83
2022-12-28T12:47:37.252Z,3.17
2022-12-28T12:50:20.444Z,3.25
2022-12-28T12:53:04.250Z,3.58
2022-12-28T12:56:13.299Z,3.58
2022-12-28T12:59:17.658Z,3.80
2022-12-28T13:02:11.338Z,4.07
2022-12-28T13:04:43.867Z,3.70
2022-12-28T13:07:23.464Z,4.40
2022-12-28T13:09:59.314Z,2.97
2022-12-28T13:12:30.807Z,2.90
2022-12-28T13:15:10.672Z,2.90
2022-12-28T13:18:42.830Z,2.80
2022-12-28T13:20:55.873Z,2.92
2022-12-28T13:23:30.167Z,2.72
2022-12-28T13:26:02.510Z,3.10
2022-12-28T13:28:36.973Z,3.28
2022-12-28T13:31:16.004Z,2.78
2022-12-28T13:33:59.966Z,2.50
2022-12-28T13:36:31.495Z,2.90
2022-12-28T13:39:12.870Z,2.88
2022-12-28T13:41:52.915Z,3.67
2022-12-28T13:44:52.881Z,3.63
2022-12-28T13:47:32.377Z,3.50
2022-12-28T13:50:06.630Z,2.80
2022-12-28T13:53:00.887Z,2.70
2022-12-28T13:55:41.518Z,3.20
2022-12-28T13:58:19.459Z,2.80
2022-12-28T14:00:53.406Z,4.78
2022-12-28T14:03:25.267Z,5.88
2022-12-28T14:05:59.138Z,3.85
2022-12-28T14:08:35.057Z,5.38
2022-12-28T14:11:07.058Z,5.60
2022-12-28T14:13:39.589Z,5.50
2022-12-28T14:16:11.563Z,3.28
2022-12-28T14:18:44.228Z,4.00
2022-12-28T14:21:15.691Z,3.43
2022-12-28T14:23:47.124Z,3.25
2022-12-28T14:26:21.342Z,4.40
2022-12-28T14:28:54.201Z,3.75
2022-12-28T14:31:29.745Z,3.17
2022-12-28T14:34:04.241Z,3.17
2022-12-28T14:36:47.109Z,2.95
2022-12-28T14:39:29.617Z,3.15
2022-12-28T14:42:03.329Z,3.00
2022-12-28T14:44:40.980Z,3.50
2022-12-28T14:47:34.433Z,3.03
2022-12-28T14:50:32.383Z,3.28
2022-12-28T14:53:13.295Z,3.10
2022-12-28T14:56:13.528Z,3.95
2022-12-28T14:58:50.453Z,4.45
2022-12-28T15:01:23.659Z,2.95
2022-12-28T15:04:01.859Z,3.25
2022-12-28T15:06:33.374Z,3.30
2022-12-28T15:09:05.014Z,2.90
2022-12-28T15:11:36.463Z,2.83
2022-12-28T15:14:07.851Z,3.00
2022-12-28T15:16:39.301Z,2.95
2022-12-28T15:19:10.749Z,2.75
2022-12-28T15:21:42.319Z,2.72
2022-12-28T15:24:15.826Z,2.80
2022-12-28T15:26:49.443Z,2.70
2022-12-28T15:29:39.523Z,2.83
2022-12-28T15:32:12.526Z,3.00
2022-12-28T15:34:43.993Z,2.58
2022-12-28T15:37:15.415Z,2.58
2022-12-28T15:39:48.288Z,2.72
2022-12-28T15:42:19.719Z,2.60
2022-12-28T15:44:51.208Z,2.83
2022-12-28T15:47:22.655Z,2.60
2022-12-28T15:49:54.148Z,2.55
2022-12-28T15:52:25.558Z,3.17
2022-12-28T15:54:57.642Z,2.63
2022-12-28T15:57:29.692Z,3.42
2022-12-28T16:00:01.269Z,2.50
2022-12-28T16:02:32.911Z,2.80
2022-12-28T16:05:04.797Z,2.67
2022-12-28T16:07:36.207Z,2.85
2022-12-28T16:10:07.996Z,2.53
2022-12-28T16:12:39.588Z,3.08
2022-12-28T16:15:11.476Z,2.77
2022-12-28T16:17:52.931Z,2.30
2022-12-28T16:20:29.675Z,2.67
2022-12-28T16:23:01.106Z,2.67
2022-12-28T16:25:32.532Z,2.65
2022-12-28T16:28:04.148Z,2.67
2022-12-28T16:30:48.359Z,2.80
2022-12-28T16:33:19.925Z,2.53
2022-12-28T16:35:56.027Z,2.17
2022-12-28T16:38:30.889Z,2.20
2022-12-28T16:41:02.308Z,2.30
2022-12-28T16:43:33.716Z,2.50
2022-12-28T16:46:07.059Z,2.28
2022-12-28T16:48:38.910Z,2.53
2022-12-28T16:51:11.594Z,2.47
2022-12-28T16:53:43.037Z,2.60
2022-12-28T16:56:14.543Z,2.70
2022-12-28T16:58:49.108Z,3.05
2022-12-28T17:01:21.022Z,3.20
2022-12-28T17:03:53.850Z,2.92
2022-12-28T17:06:26.006Z,2.80
2022-12-28T17:08:57.488Z,3.10
2022-12-28T17:11:28.959Z,2.97
2022-12-28T17:14:06.160Z,3.30
2022-12-28T17:16:38.503Z,3.65
2022-12-28T17:19:09.969Z,3.15
2022-12-28T17:21:41.416Z,3.20
2022-12-28T17:24:12.867Z,3.10
2022-12-28T17:26:44.299Z,2.90
2022-12-28T17:29:15.768Z,3.50
2022-12-28T17:31:48.671Z,3.95
2022-12-28T17:34:20.330Z,3.78
2022-12-28T17:36:51.849Z,3.60
2022-12-28T17:39:23.373Z,3.53
2022-12-28T17:41:54.841Z,3.63
2022-12-28T17:44:26.305Z,3.40
2022-12-28T17:46:57.745Z,4.00
2022-12-28T17:49:29.165Z,3.73
2022-12-28T17:52:00.611Z,3.55
2022-12-28T17:54:32.575Z,3.85
2022-12-28T17:57:04.075Z,3.95
2022-12-28T17:59:35.549Z,4.20
2022-12-28T18:02:07.559Z,4.10
2022-12-28T18:04:40.278Z,4.18
2022-12-28T18:07:11.807Z,4.47
2022-12-28T18:09:43.242Z,3.95
2022-12-28T18:12:14.648Z,4.30
2022-12-28T18:14:46.137Z,4.30
2022-12-28T18:17:17.695Z,4.20
2022-12-28T18:19:49.933Z,3.88
2022-12-28T18:22:22.128Z,4.25
2022-12-28T18:24:53.623Z,4.30
2022-12-28T18:27:25.173Z,4.05
2022-12-28T18:29:56.702Z,4.18
2022-12-28T18:32:28.214Z,4.40
2022-12-28T18:34:59.681Z,4.28
2022-12-28T18:37:31.428Z,4.15
2022-12-28T18:40:02.989Z,4.20
2022-12-28T18:42:34.384Z,4.18
2022-12-28T18:45:06.432Z,4.10
2022-12-28T18:47:37.868Z,3.80
2022-12-28T18:50:09.782Z,4.13
2022-12-28T18:52:41.231Z,3.78
2022-12-28T18:55:14.630Z,4.13
2022-12-28T18:57:46.023Z,3.97
2022-12-28T19:00:21.364Z,4.15
2022-12-28T19:02:53.064Z,3.80
2022-12-28T19:05:24.647Z,3.90
2022-12-28T19:07:56.110Z,3.65
2022-12-28T19:10:27.556Z,4.18
2022-12-28T19:13:04.031Z,4.68
2022-12-28T19:15:35.488Z,4.45
2022-12-28T19:18:07.071Z,4.28
2022-12-28T19:20:38.711Z,4.63
2022-12-28T19:23:12.921Z,4.13
2022-12-28T19:25:44.332Z,4.27
2022-12-28T19:28:15.749Z,4.72
2022-12-28T19:30:47.184Z,4.55
2022-12-28T19:33:18.641Z,4.85
2022-12-28T19:35:50.059Z,4.30
2022-12-28T19:38:21.556Z,4.35
2022-12-28T19:40:54.866Z,4.10
2022-12-28T19:43:26.299Z,3.92
2022-12-28T19:46:07.886Z,4.10
2022-12-28T19:48:39.382Z,3.47
2022-12-28T19:51:11.357Z,3.77
2022-12-28T19:53:42.859Z,3.93
2022-12-28T19:56:16.342Z,3.75
2022-12-28T19:58:48.434Z,4.15
2022-12-28T20:01:22.741Z,4.20
2022-12-28T20:03:54.971Z,3.47
2022-12-28T20:06:28.742Z,3.70
2022-12-28T20:09:01.327Z,3.60
2022-12-28T20:11:32.850Z,3.58
2022-12-28T20:14:04.792Z,3.47
2022-12-28T20:16:36.345Z,3.50
2022-12-28T20:19:08.161Z,3.30
2022-12-28T20:21:40.283Z,3.63
2022-12-28T20:24:11.916Z,3.20
2022-12-28T20:26:43.348Z,3.35
2022-12-28T20:29:15.100Z,3.25
2022-12-28T20:31:46.566Z,3.08
2022-12-28T20:34:18.183Z,3.20
2022-12-28T20:36:49.618Z,2.90
2022-12-28T20:39:21.041Z,3.05
2022-12-28T20:41:52.449Z,3.03
2022-12-28T20:44:26.495Z,3.05
2022-12-28T20:46:59.543Z,2.95
2022-12-28T20:49:31.494Z,2.78
2022-12-28T20:52:03.005Z,2.80
2022-12-28T20:54:34.407Z,2.75
2022-12-28T20:57:05.883Z,2.78
2022-12-28T20:59:37.333Z,2.80
2022-12-28T21:02:10.488Z,2.70
2022-12-28T21:04:41.964Z,2.78
2022-12-28T21:07:13.364Z,2.90
2022-12-28T21:09:44.919Z,2.60
2022-12-28T21:12:16.619Z,2.85
2022-12-28T21:14:48.093Z,2.67
2022-12-28T21:17:19.715Z,2.80
2022-12-28T21:19:51.307Z,2.70
2022-12-28T21:22:22.755Z,2.80
2022-12-28T21:24:54.203Z,3.08
2022-12-28T21:27:25.671Z,2.50
2022-12-28T21:29:57.142Z,2.60
2022-12-28T21:32:28.605Z,2.90
2022-12-28T21:35:00.081Z,2.65
2022-12-28T21:37:31.610Z,2.45
2022-12-28T21:40:05.787Z,2.60
2022-12-28T21:42:37.322Z,2.50
2022-12-28T21:45:09.311Z,2.78
2022-12-28T21:47:40.781Z,2.15
2022-12-28T21:50:12.180Z,2.13
2022-12-28T21:52:43.621Z,2.10
2022-12-28T21:55:15.137Z,2.30
2022-12-28T21:57:51.334Z,2.20
2022-12-28T22:00:22.760Z,2.03
2022-12-28T22:02:54.346Z,2.08
2022-12-28T22:05:25.822Z,2.00
2022-12-28T22:07:57.310Z,2.03
2022-12-28T22:10:28.744Z,2.25
2022-12-28T22:13:00.153Z,2.50
2022-12-28T22:15:31.547Z,2.63
2022-12-28T22:18:06.048Z,2.95
2022-12-28T22:20:37.930Z,3.10
2022-12-28T22:23:09.396Z,3.05
2022-12-28T22:25:41.448Z,3.50
2022-12-28T22:28:13.028Z,3.22
2022-12-28T22:30:44.505Z,3.55
2022-12-28T22:33:15.924Z,3.42
2022-12-28T22:35:47.363Z,3.17
2022-12-28T22:38:18.750Z,3.30
2022-12-28T22:40:59.426Z,3.30
2022-12-28T22:43:30.832Z,3.30
2022-12-28T22:46:11.885Z,3.20
2022-12-28T22:48:43.594Z,3.20
2022-12-28T22:51:16.464Z,2.97
2022-12-28T22:53:48.139Z,2.80
2022-12-28T22:56:19.557Z,3.20
2022-12-28T22:58:51.077Z,2.80
2022-12-28T23:01:22.635Z,2.80
2022-12-28T23:03:54.143Z,2.83
2022-12-28T23:06:25.592Z,3.10
2022-12-28T23:08:57.108Z,2.92
2022-12-28T23:11:28.564Z,2.67
2022-12-28T23:14:01.235Z,2.90
2022-12-28T23:16:32.748Z,2.70
2022-12-28T23:19:04.234Z,2.88
2022-12-28T23:21:35.668Z,2.92
2022-12-28T23:24:11.461Z,2.67
2022-12-28T23:26:42.899Z,2.60
2022-12-28T23:29:14.283Z,2.50
2022-12-28T23:31:45.678Z,2.22
2022-12-28T23:34:17.117Z,2.15
2022-12-28T23:36:48.567Z,2.30
2022-12-28T23:39:20.120Z,2.40
2022-12-28T23:41:51.959Z,1.90
2022-12-28T23:44:25.466Z,2.15
2022-12-28T23:46:59.241Z,2.20
2022-12-28T23:49:30.858Z,1.92
2022-12-28T23:52:02.304Z,1.98
2022-12-28T23:54:33.768Z,1.90
2022-12-28T23:57:05.632Z,1.90
2022-12-28T23:59:37.082Z,1.70
